• Join FlightAware (Why Join?)
  • Login
  • US Flag 
11:01PM EDT


 

Airport Tracker/Info


-or-


 

Live Flight TrackerFlight Track Log ✈ DAL6036 ✈ 11-Dec-2013 ✈ KCVG - KRDU

Flight Track Log - Related Links

Times and Time Zones

All times are in EST time to prevent confusion due to time zone crossing. See the DAL6036 flight status page for this flight to view local times or setup timezone preferences in your user account.

Time Position Orientation Groundspeed Altitude Reporting Facility
EST Latitude Longitude Course Direction KTS MPH feet Rate Location/Type
04:14PM 39.0333 -84.6667 90° East 166 191 1,400  Level Cincinnati TRACON
04:14PM 39.0167 -84.6167 113° Southeast 207 238 3,000 2,220 Climbing Cincinnati TRACON
04:15PM 39.0000 -84.5333 104° East 278 320 5,400 2,580 Climbing Cincinnati TRACON
04:16PM 38.9667 -84.4333 113° Southeast 295 339 8,200 2,460 Climbing Cincinnati TRACON
04:18PM 38.7265 -84.0199 90° East  Level Estimated
04:18PM 38.9436 -84.3269 106° East 311 358 10,900  Level Indianapolis Center
04:19PM 38.6616 -83.8910 90° East  Level Estimated
04:19PM 38.9144 -84.2017 107° East 362 417 12,500  Level Indianapolis Center
04:20PM 38.8753 -84.0328 107° East 414 476 14,300 1,620 Climbing Indianapolis Center
04:21PM 38.8428 -83.8803 105° East 442 509 15,900 1,500 Climbing Indianapolis Center
04:22PM 38.8078 -83.7231 106° East 460 529 17,400 1,200 Climbing Indianapolis Center
04:23PM 38.7733 -83.5639 105° East 467 537 18,500 1,260 Climbing Indianapolis Center
04:24PM 38.7636 -83.3956 94° East 477 549 20,100 1,620 Climbing Indianapolis Center
04:25PM 38.7633 -83.1939 90° East 475 547 21,900 1,740 Climbing Indianapolis Center
04:26PM 38.7625 -83.0158 90° East 487 560 23,800 1,440 Climbing Indianapolis Center
04:27PM 38.7389 -82.8472 100° East 488 562 24,900 1,080 Climbing Indianapolis Center
04:28PM 38.6644 -82.7100 125° Southeast 471 542 26,100 1,140 Climbing Indianapolis Center
04:29PM 38.5781 -82.5506 125° Southeast 477 549 27,300 960 Climbing Indianapolis Center
04:30PM 38.5117 -82.4297 125° Southeast 484 557 28,100 780 Climbing Indianapolis Center
04:31PM 38.4167 -82.2575 125° Southeast 495 570 29,000 420 Climbing Indianapolis Center
04:32PM 38.3350 -82.1106 125° Southeast 507 583 29,000  Level Indianapolis Center
04:33PM 38.2508 -81.9586 125° Southeast 523 602 29,000  Level Indianapolis Center
04:34PM 38.1656 -81.8047 125° Southeast 534 615 29,000  Level Indianapolis Center
04:35PM 38.0786 -81.6506 126° Southeast 538 619 29,000  Level Indianapolis Center
04:36PM 37.9753 -81.4683 126° Southeast 533 613 29,000  Level Indianapolis Center
04:37PM 37.8906 -81.3186 126° Southeast 526 605 29,000  Level Indianapolis Center
04:38PM 37.8108 -81.1800 126° Southeast 524 603 29,000  Level Indianapolis Center
04:39PM 37.7242 -80.9928 120° Southeast 530 610 29,000  Level Indianapolis Center
04:40PM 37.6586 -80.8289 117° Southeast 535 616 29,000  Level Indianapolis Center
04:41PM 37.5911 -80.6689 118° Southeast 533 613 29,000 -480 Level Indianapolis Center
04:42PM 37.5122 -80.4781 117° Southeast 527 606 28,100 -960 Descending Indianapolis Center
04:43PM 37.4472 -80.3203 117° Southeast 524 603 27,100 -1,020 Descending Indianapolis Center
04:44PM 37.3808 -80.1642 118° Southeast 522 601 26,000 -1,020 Descending Indianapolis Center
04:46PM 37.3092 -80.0172 121° Southeast 509 586 25,000 -1,140 Descending Indianapolis Center
04:47PM 37.2092 -79.8639 129° Southeast 490 564 23,700 -1,140 Descending Indianapolis Center
04:48PM 37.0944 -79.7294 137° Southeast 480 552 22,500 -1,080 Descending Washington Center
04:49PM 37.0058 -79.6311 138° Southeast 475 547 21,400 -780 Descending Washington Center
04:50PM 36.9136 -79.5222 137° Southeast 475 547 21,000 -900 Descending Washington Center
04:51PM 36.8169 -79.4111 137° Southeast 475 547 19,700 -1,620 Descending Washington Center
04:52PM 36.7283 -79.3133 138° Southeast 457 526 17,800 -2,340 Descending Washington Center
04:53PM 36.6317 -79.2025 137° Southeast 437 503 15,100 -2,460 Descending Washington Center
04:54PM 36.5508 -79.1108 138° Southeast 422 486 12,900 -2,220 Descending Washington Center
04:54PM 36.5042 -79.0622 140° Southeast 389 448 11,700 -2,400 Descending Washington Center
04:55PM 36.4700 -79.0219 137° Southeast 396 456 10,600 -1,800 Descending Washington Center
04:55PM 36.4336 -78.9767 135° Southeast 383 441 10,100 -720 Descending Washington Center
04:56PM 36.4114 -78.9522 138° Southeast 385 443 9,900 -120 Descending Washington Center
04:56PM 36.3647 -78.9064 142° Southeast 346 398 10,000 -420 Climbing Washington Center
04:57PM 36.3261 -78.8714 144° Southeast 332 382 9,500 -1,020 Descending Washington Center
04:57PM 36.2975 -78.8494 148° Southeast 278 320 9,000 -1,200 Descending Washington Center
04:58PM 36.2631 -78.8147 141° Southeast 297 342 8,300 -1,200 Descending Washington Center
04:58PM 36.2364 -78.7928 146° Southeast 274 315 7,800 -1,380 Descending Washington Center
04:59PM 36.1997 -78.7581 143° Southeast 284 327 7,000 -1,500 Descending Washington Center
04:59PM 36.1731 -78.7389 150° Southeast 276 318 6,300 -900 Descending Washington Center
05:00PM 36.1364 -78.7039 142° Southeast 277 319 6,100 -240 Descending Washington Center
05:00PM 36.1078 -78.6822 149° Southeast 281 323 6,100 -120 Level Washington Center
05:01PM 36.0814 -78.6581 143° Southeast 264 304 6,000  Descending Washington Center
05:01PM 36.0589 -78.6392 146° Southeast 211 243 6,100  Climbing Washington Center
05:02PM 36.0297 -78.6331 170° South 231 266 6,000 -900 Descending Washington Center
05:02PM 36.0003 -78.6447 198° South 179 206 5,100 3,960 Descending Washington Center
05:03PM 35.9894 -78.6622 233° Southwest 168 193 10,000 -2,040 Climbing Washington Center
05:03PM 35.9722 -78.6847 227° Southwest 150 173 3,100 -7,500 Descending Washington Center
05:04PM 35.9614 -78.6997 228° Southwest 151 174 2,500 -1,200 Descending Washington Center
05:04PM 35.9419 -78.7219 223° Southwest 145 167 1,900 -900 Descending Washington Center
05:05PM 35.9139 -78.7542 223° Southwest 129 148 1,100 -840 Descending Washington Center
05:07PM 35.8776 -78.7875 90° East  Level Estimated
05:14PM 35.8776 -78.7875 90° East  Level Estimated
05:15PM 35.8776 -78.7875 90° East  Level Estimated